Time;durP1;ratioP1;P1;durP2;ratioP2;P2;SDS_P1;SDS_P2;PMS_P1;PMS_P2;Temp;Humidity;BMP_temperature;BMP_pressure;BME280_temperature;BME280_humidity;BME280_pressure;Samples;Min_cycle;Max_cycle;Signal;HPM_P1;HPM_P2
2021/05/20 07:44:44;;;;;;;;;;;;;;;13.48;64.17;100175.44;6219958;22;19942;-87
2021/05/20 07:47:09;;;;;;;;;;;;;;;13.49;64.05;100178.97;6247363;23;19916;-86
2021/05/20 07:49:37;;;;;;;;;;;;;;;13.49;64.05;100176.31;6247693;23;19931;-87
2021/05/20 07:52:04;;;;;;;;;;;;;;;13.49;64.43;100178.97;6221188;23;20342;-86
2021/05/20 07:54:31;;;;;;;;;;;;;;;13.49;64.21;100185.16;6220757;23;19943;-86
2021/05/20 07:56:56;;;;;;;;;;;;;;;13.49;64.28;100190.47;6220732;23;19907;-85
2021/05/20 07:59:22;;;;;;;;;;;;;;;13.49;64.12;100185.16;6219952;23;19949;-85
2021/05/20 08:02:14;;;;;;;;;;;;;;;13.49;64.24;100182.50;6243125;23;19938;-85
2021/05/20 08:04:37;;;;;;;;;;;;;;;13.51;64.10;100182.41;6240140;23;19915;-85
2021/05/20 08:10:02;;;;;;;;;;;;;;;13.50;64.18;100178.91;6241360;23;20050;-85
2021/05/20 08:12:27;;;;;;;;;;;;;;;13.51;64.28;100174.44;6218845;23;19923;-86
2021/05/20 08:14:54;;;;;;;;;;;;;;;13.51;64.42;100177.94;6245854;23;19918;-87
2021/05/20 08:17:19;;;;;;;;;;;;;;;13.51;64.23;100172.63;6247394;23;20418;-86
2021/05/20 08:19:45;;;;;;;;;;;;;;;13.51;64.13;100163.78;6269590;22;19919;-86
2021/05/20 08:22:10;;;;;;;;;;;;;;;13.52;64.13;100173.50;6270817;23;19915;-86
2021/05/20 08:24:35;;;;;;;;;;;;;;;13.52;63.99;100177.03;6245035;23;19900;-86
2021/05/20 08:27:01;;;;;;;;;;;;;;;13.53;64.06;100165.44;6245628;23;19943;-86
2021/05/20 08:29:28;;;;;;;;;;;;;;;13.53;63.99;100176.09;6270972;23;19965;-87
2021/05/20 08:31:54;;;;;;;;;;;;;;;13.53;63.92;100176.09;6244565;23;19911;-87
2021/05/20 08:34:19;;;;;;;;;;;;;;;13.55;63.73;100178.69;6271277;23;19916;-86
2021/05/20 08:36:45;;;;;;;;;;;;;;;13.54;63.76;100171.63;6270767;23;19911;-87
2021/05/20 08:39:10;;;;;;;;;;;;;;;13.53;64.28;100173.44;6271003;23;19912;-86
2021/05/20 08:41:36;;;;;;;;;;;;;;;13.54;63.83;100180.47;6270422;23;19911;-87
2021/05/20 08:44:12;;;;;;;;;;;;;;;13.54;63.81;100171.63;6244839;23;19959;-86
2021/05/20 08:46:37;;;;;;;;;;;;;;;13.55;63.77;100173.34;6270242;23;19916;-87
2021/05/20 08:49:06;;;;;;;;;;;;;;;13.55;63.94;100182.19;6270546;23;19922;-86
2021/05/20 08:51:31;;;;;;;;;;;;;;;13.56;63.94;100183.94;6270875;23;20200;-87
2021/05/20 08:53:57;;;;;;;;;;;;;;;13.55;63.99;100182.19;6270530;23;19927;-86
2021/05/20 08:56:24;;;;;;;;;;;;;;;13.56;64.03;100177.72;6270354;23;19916;-87
2021/05/20 08:58:49;;;;;;;;;;;;;;;13.57;63.95;100184.78;6270447;23;19926;-86
2021/05/20 09:01:34;;;;;;;;;;;;;;;13.57;64.01;100176.81;6270714;23;19903;-86
2021/05/20 09:04:00;;;;;;;;;;;;;;;13.58;63.85;100170.56;6243783;23;19935;-86
2021/05/20 09:06:37;;;;;;;;;;;;;;;13.59;63.93;100177.56;6244421;23;19916;-86
2021/05/20 09:09:04;;;;;;;;;;;;;;;13.59;63.77;100166.94;6270313;23;19923;-86
2021/05/20 09:11:30;;;;;;;;;;;;;;;13.59;63.74;100170.47;6270921;23;19919;-86
2021/05/20 09:14:05;;;;;;;;;;;;;;;13.59;63.71;100166.94;6270990;23;19942;-86
2021/05/20 09:16:34;;;;;;;;;;;;;;;13.60;63.70;100164.19;6270237;23;19925;-86
2021/05/20 09:19:00;;;;;;;;;;;;;;;13.59;63.66;100170.47;6270224;23;19916;-87
2021/05/20 09:21:26;;;;;;;;;;;;;;;13.59;63.99;100167.81;6244038;23;19911;-87
2021/05/20 09:23:52;;;;;;;;;;;;;;;13.60;63.78;100168.66;6267595;23;20358;-88
2021/05/20 09:26:17;;;;;;;;;;;;;;;13.62;63.79;100169.44;6259829;23;19959;-88
2021/05/20 09:28:46;;;;;;;;;;;;;;;13.61;63.74;100168.59;6258402;23;19915;-89
2021/05/20 09:31:14;;;;;;;;;;;;;;;13.61;63.91;100181.91;6265877;23;19919;-88
2021/05/20 09:33:49;;;;;;;;;;;;;;;13.62;63.92;100166.78;6267050;23;19989;-88
2021/05/20 09:36:19;;;;;;;;;;;;;;;13.61;63.93;100173.91;6266802;23;19915;-88
2021/05/20 09:38:45;;;;;;;;;;;;;;;13.63;63.77;100172.03;6267697;23;19938;-88
2021/05/20 09:41:16;;;;;;;;;;;;;;;13.62;63.91;100178.31;6269375;23;19944;-88
2021/05/20 09:43:44;;;;;;;;;;;;;;;13.63;63.91;100174.69;6265539;23;19920;-87
2021/05/20 09:46:16;;;;;;;;;;;;;;;13.63;63.97;100171.19;6269962;23;19919;-87
2021/05/20 09:48:47;;;;;;;;;;;;;;;13.62;64.01;100166.78;6272513;23;19946;-87
2021/05/20 09:51:24;;;;;;;;;;;;;;;13.64;64.17;100162.22;6272012;23;19915;-87
2021/05/20 09:53:53;;;;;;;;;;;;;;;13.64;64.05;100159.56;6246388;23;19959;-87
2021/05/20 09:56:31;;;;;;;;;;;;;;;13.65;63.92;100155.13;6271096;23;19920;-87
2021/05/20 09:58:56;;;;;;;;;;;;;;;13.65;64.03;100155.13;6271565;23;19926;-88
2021/05/20 10:01:21;;;;;;;;;;;;;;;13.70;63.90;100161.09;6271985;23;19924;-87
2021/05/20 10:03:51;;;;;;;;;;;;;;;13.71;63.58;100161.00;6272009;23;19926;-87
2021/05/20 10:06:33;;;;;;;;;;;;;;;13.72;63.62;100157.41;6272036;23;19910;-87
2021/05/20 10:08:58;;;;;;;;;;;;;;;13.70;63.58;100156.59;6245701;23;19931;-87
2021/05/20 10:11:24;;;;;;;;;;;;;;;13.70;63.58;100161.94;6271285;23;19915;-88
2021/05/20 10:13:49;;;;;;;;;;;;;;;13.72;63.56;100156.53;6267168;23;19927;-88
2021/05/20 10:16:14;;;;;;;;;;;;;;;13.73;63.24;100155.59;6229947;23;19971;-88
2021/05/20 10:18:40;;;;;;;;;;;;;;;13.75;63.34;100159.03;6257407;23;20203;-89
2021/05/20 10:21:05;;;;;;;;;;;;;;;13.76;62.75;100145.66;6237305;23;19967;-88
2021/05/20 10:23:30;;;;;;;;;;;;;;;13.77;62.61;100146.53;6240128;23;19926;-88
2021/05/20 10:25:57;;;;;;;;;;;;;;;13.79;62.54;100150.81;6267647;23;19987;-87
2021/05/20 10:28:25;;;;;;;;;;;;;;;13.79;62.52;100141.97;6264853;23;19923;-88
2021/05/20 10:30:51;;;;;;;;;;;;;;;13.81;62.44;100142.75;6265831;23;19923;-88
2021/05/20 10:33:17;;;;;;;;;;;;;;;13.80;62.48;100141.03;6240685;23;19911;-88
2021/05/20 10:35:47;;;;;;;;;;;;;;;13.81;62.42;100137.44;6267937;23;19911;-88
2021/05/20 10:38:15;;;;;;;;;;;;;;;13.83;62.20;100140.88;6269824;23;19920;-88
2021/05/20 10:40:41;;;;;;;;;;;;;;;13.83;62.35;100143.53;6270090;23;19915;-87
2021/05/20 10:43:08;;;;;;;;;;;;;;;13.83;62.38;100148.84;6267822;23;19912;-87
